Time;durP1;ratioP1;P1;durP2;ratioP2;P2;SDS_P1;SDS_P2;PMS_P1;PMS_P2;Temp;Humidity;BMP_temperature;BMP_pressure;BME280_temperature;BME280_humidity;BME280_pressure;Samples;Min_cycle;Max_cycle;Signal;HPM_P1;HPM_P2
2022/08/19 06:19:49;;;;;;;;;7.33;7.00;;;;;23.98;54.29;101390.16;5068584;27;45590;-69
2022/08/19 06:22:15;;;;;;;;;8.00;8.00;;;;;24.04;53.69;101386.81;5060653;27;45447;-68
2022/08/19 06:24:40;;;;;;;;;7.67;7.67;;;;;24.23;53.67;101384.97;5062236;27;45439;-69
2022/08/19 06:27:05;;;;;;;;;7.00;6.67;;;;;24.44;53.56;101395.47;5062728;27;45475;-69
2022/08/19 06:29:31;;;;;;;;;6.67;5.00;;;;;24.67;53.11;101391.34;5065669;27;45490;-68
2022/08/19 06:32:00;;;;;;;;;5.00;5.00;;;;;24.91;52.81;101382.53;5071176;28;45508;-68
2022/08/19 06:34:27;;;;;;;;;7.00;4.33;;;;;25.14;52.13;101390.09;5070591;28;45626;-69
2022/08/19 06:36:53;;;;;;;;;5.67;5.67;;;;;25.35;51.89;101386.09;5070907;28;45319;-69
2022/08/19 06:39:24;;;;;;;;;3.67;3.67;;;;;25.59;51.28;101398.91;5068036;28;45454;-70
2022/08/19 06:41:52;;;;;;;;;5.00;3.33;;;;;25.80;50.83;101405.75;5070946;28;45450;-70
2022/08/19 06:44:19;;;;;;;;;3.00;3.00;;;;;25.97;50.64;101392.16;5070963;27;45419;-70
2022/08/19 06:46:45;;;;;;;;;4.33;4.33;;;;;26.13;50.55;101402.19;5070941;28;45424;-68
2022/08/19 06:49:13;;;;;;;;;3.00;3.00;;;;;26.31;49.71;101393.88;5067574;28;45379;-69
2022/08/19 06:51:41;;;;;;;;;4.00;4.00;;;;;26.47;50.11;101403.03;5068653;28;45531;-69
2022/08/19 06:54:07;;;;;;;;;2.33;2.33;;;;;26.53;49.44;101392.31;5066748;27;45478;-69
2022/08/19 06:56:36;;;;;;;;;3.00;2.00;;;;;26.69;49.01;101404.22;5069349;28;45458;-70
2022/08/19 06:59:04;;;;;;;;;3.00;3.00;;;;;26.82;49.05;101409.09;5066675;28;45435;-70
2022/08/19 07:01:29;;;;;;;;;3.00;3.00;;;;;26.90;48.21;101411.81;5060693;28;45446;-69
2022/08/19 07:03:56;;;;;;;;;2.00;2.00;;;;;27.02;47.95;101411.44;5058681;28;45655;-69
2022/08/19 07:06:21;;;;;;;;;2.00;2.00;;;;;27.08;48.31;101408.88;5068018;28;45724;-70
2022/08/19 07:08:48;;;;;;;;;2.00;2.00;;;;;27.18;47.54;101405.09;5069263;28;47347;-69
2022/08/19 07:11:20;;;;;;;;;3.00;3.00;;;;;27.25;47.35;101407.94;5064395;28;45716;-69
2022/08/19 07:13:48;;;;;;;;;2.00;2.00;;;;;27.32;47.07;101412.50;5069569;28;45592;-70
2022/08/19 07:16:17;;;;;;;;;2.00;2.00;;;;;27.39;46.89;101409.06;5061893;28;45440;-70
2022/08/19 07:18:44;;;;;;;;;4.00;2.00;;;;;27.43;47.07;101416.69;5065976;27;46334;-68
2022/08/19 07:21:13;;;;;;;;;3.00;3.00;;;;;27.48;47.38;101418.88;5058921;27;45506;-69
2022/08/19 07:23:39;;;;;;;;;2.00;2.00;;;;;27.53;46.48;101410.16;5061173;28;45446;-68
2022/08/19 07:26:19;;;;;;;;;2.00;2.00;;;;;27.57;47.25;101412.38;5063936;28;45405;-70
2022/08/19 07:28:47;;;;;;;;;4.33;2.33;;;;;27.61;46.62;101407.41;5062961;28;46935;-69
2022/08/19 07:31:15;;;;;;;;;2.67;2.67;;;;;27.67;47.03;101412.16;5053002;28;45942;-69
2022/08/19 07:33:42;;;;;;;;;2.00;2.00;;;;;27.73;46.42;101411.44;5041598;28;45488;-72
2022/08/19 07:36:13;;;;;;;;;2.00;2.00;;;;;27.77;46.58;101411.91;5048180;28;45408;-70
2022/08/19 07:38:43;;;;;;;;;3.00;2.00;;;;;27.82;46.63;101423.13;5050099;28;45455;-70
2022/08/19 07:41:12;;;;;;;;;2.00;2.00;;;;;27.86;45.94;101418.16;5049771;28;45649;-70
2022/08/19 07:43:39;;;;;;;;;2.00;2.00;;;;;27.85;46.63;101414.59;5056008;28;45437;-70
2022/08/19 07:46:04;;;;;;;;;1.67;1.67;;;;;27.90;45.68;101424.94;5055731;28;45592;-69
2022/08/19 07:48:30;;;;;;;;;1.00;1.00;;;;;27.91;46.11;101423.91;5050128;28;46013;-70
2022/08/19 07:51:01;;;;;;;;;1.33;1.33;;;;;27.95;46.16;101418.97;5050966;28;45345;-69
2022/08/19 07:53:27;;;;;;;;;4.00;2.00;;;;;27.96;45.94;101415.19;5056012;28;45415;-70
2022/08/19 07:55:53;;;;;;;;;2.67;2.33;;;;;27.99;46.73;101425.72;5056097;28;45748;-70
2022/08/19 07:58:22;;;;;;;;;2.67;2.67;;;;;28.02;46.48;101422.66;5053779;28;45577;-69
2022/08/19 08:00:50;;;;;;;;;4.00;4.00;;;;;28.03;46.49;101424.34;5055227;28;45493;-70
2022/08/19 08:03:19;;;;;;;;;4.33;4.00;;;;;28.04;45.93;101427.91;5053404;28;45788;-70
2022/08/19 08:11:03;;;;;;;;;3.00;3.00;;;;;28.09;45.40;101440.00;5016607;28;45578;-71
2022/08/19 08:13:28;;;;;;;;;5.33;3.00;;;;;28.11;45.85;101434.31;5016719;28;45694;-70
2022/08/19 08:15:53;;;;;;;;;4.67;2.67;;;;;28.11;45.52;101437.91;5013166;28;45693;-70
2022/08/19 08:18:20;;;;;;;;;5.33;5.00;;;;;28.11;45.70;101434.31;5013989;28;45405;-70
2022/08/19 08:20:45;;;;;;;;;2.67;2.67;;;;;28.11;45.85;101437.91;5013240;28;45393;-70
2022/08/19 08:23:24;;;;;;;;;2.00;2.00;;;;;28.11;45.64;101437.91;5013709;28;45583;-70
2022/08/19 08:25:52;;;;;;;;;2.00;2.00;;;;;28.13;44.77;101438.56;5008094;28;45528;-69
2022/08/19 08:28:18;;;;;;;;;2.00;2.00;;;;;28.14;45.27;101442.16;5012135;28;45446;-69
2022/08/19 08:30:47;;;;;;;;;2.00;2.00;;;;;28.18;45.31;101446.22;5013062;28;45429;-69
2022/08/19 08:33:13;;;;;;;;;2.00;2.00;;;;;28.20;45.73;101449.59;5008043;28;45625;-71
2022/08/19 08:35:45;;;;;;;;;2.00;2.00;;;;;28.20;44.94;101429.66;5007104;28;45504;-69
2022/08/19 08:38:11;;;;;;;;;2.33;2.33;;;;;28.24;45.43;101441.94;4992405;28;47419;-70
2022/08/19 08:40:56;;;;;;;;;3.00;2.00;;;;;28.26;45.25;101453.53;5005088;28;45482;-69
2022/08/19 08:43:30;;;;;;;;;4.00;2.33;;;;;28.27;44.48;101452.47;5012445;28;45799;-69
2022/08/19 08:46:07;;;;;;;;;2.67;2.67;;;;;28.30;44.50;101448.53;5027695;28;45548;-69
2022/08/19 08:48:41;;;;;;;;;3.00;2.00;;;;;28.31;44.81;101455.72;5050425;28;45442;-69
2022/08/19 08:51:21;;;;;;;;;1.67;1.67;;;;;28.31;44.87;101453.00;5055376;28;45418;-69
2022/08/19 08:53:48;;;;;;;;;3.00;3.00;;;;;28.30;44.69;101446.66;5051328;28;45567;-68
2022/08/19 08:56:14;;;;;;;;;1.67;1.67;;;;;28.31;44.64;101444.81;5049808;28;45865;-69
2022/08/19 08:58:59;;;;;;;;;2.33;2.33;;;;;28.33;44.43;101446.31;5054483;28;45440;-69
2022/08/19 09:01:25;;;;;;;;;1.00;1.00;;;;;28.33;44.84;101437.25;5052159;28;46927;-69
2022/08/19 09:03:51;;;;;;;;;2.00;2.00;;;;;28.31;44.68;101445.63;5047445;28;45562;-69
2022/08/19 09:07:07;;;;;;;;;1.00;1.00;;;;;28.34;44.53;101447.13;5048855;28;45402;-68
2022/08/19 09:09:39;;;;;;;;;2.00;2.00;;;;;28.35;44.55;101454.28;5036422;28;45413;-68
2022/08/19 09:12:24;;;;;;;;;5.00;3.00;;;;;28.37;44.17;101450.34;5052329;28;45649;-68
2022/08/19 09:14:58;;;;;;;;;3.00;2.00;;;;;28.39;44.84;101453.75;5050491;28;45607;-69
2022/08/19 09:17:33;;;;;;;;;2.33;2.33;;;;;28.39;44.33;101453.75;5047940;28;45483;-69
2022/08/19 09:20:04;;;;;;;;;2.00;2.00;;;;;28.41;44.64;101448.13;5038750;28;45542;-69
2022/08/19 09:22:29;;;;;;;;;2.00;2.00;;;;;28.42;44.89;101452.53;5042756;28;45402;-69
2022/08/19 09:24:55;;;;;;;;;2.00;2.00;;;;;28.43;44.56;101447.91;5042653;28;45616;-70
2022/08/19 09:27:23;;;;;;;;;2.00;2.00;;;;;28.43;44.46;101447.91;5032674;28;45463;-70
2022/08/19 09:29:49;;;;;;;;;1.67;1.67;;;;;28.43;44.53;101446.03;5046696;28;46169;-70
2022/08/19 09:32:15;;;;;;;;;2.00;2.00;;;;;28.39;44.69;101436.50;5039770;28;45533;-69
2022/08/19 09:34:41;;;;;;;;;2.67;2.67;;;;;28.45;44.46;101443.13;5051734;28;45918;-68
2022/08/19 09:37:06;;;;;;;;;3.33;1.67;;;;;28.46;43.91;101440.22;5051796;28;45370;-68
2022/08/19 09:39:32;;;;;;;;;4.00;4.00;;;;;28.46;44.39;101436.63;5052576;28;46018;-68
2022/08/19 09:41:57;;;;;;;;;3.00;3.00;;;;;28.52;44.63;101444.06;5046592;28;45468;-68
2022/08/19 09:44:23;;;;;;;;;2.00;2.00;;;;;28.51;44.54;101432.31;5050665;28;45362;-69
2022/08/19 09:46:49;;;;;;;;;4.00;3.00;;;;;28.53;44.27;101432.13;5053698;28;45488;-69
2022/08/19 09:49:19;;;;;;;;;3.00;3.00;;;;;28.53;44.64;101422.03;5050448;28;48390;-69
2022/08/19 09:51:45;;;;;;;;;1.00;1.00;;;;;28.55;44.05;101430.06;5051199;28;45657;-69
2022/08/19 09:54:11;;;;;;;;;2.67;2.33;;;;;28.56;44.59;101425.44;5038604;28;45468;-69
2022/08/19 09:56:36;;;;;;;;;2.00;2.00;;;;;28.57;44.31;101430.69;5041036;28;45491;-69
2022/08/19 09:59:03;;;;;;;;;3.00;3.00;;;;;28.60;44.17;101433.06;5039466;28;46286;-69
2022/08/19 10:01:30;;;;;;;;;2.00;2.00;;;;;28.60;43.98;101429.50;5052523;28;45463;-69
2022/08/19 10:03:58;;;;;;;;;4.00;3.00;;;;;28.61;44.19;101425.75;5055046;28;45569;-69
2022/08/19 10:06:25;;;;;;;;;1.67;1.67;;;;;28.62;44.28;101431.03;5052945;28;45377;-68
2022/08/19 10:08:51;;;;;;;;;2.67;2.67;;;;;28.64;43.74;101431.66;5049016;28;45805;-68
2022/08/19 10:11:18;;;;;;;;;3.00;3.00;;;;;28.66;44.01;101423.28;5049421;28;45447;-69
2022/08/19 10:13:44;;;;;;;;;2.33;2.33;;;;;28.66;44.07;101421.38;5048588;28;45690;-70
2022/08/19 10:16:13;;;;;;;;;1.67;1.67;;;;;28.70;43.83;101424.63;5054435;28;45638;-67
2022/08/19 10:18:42;;;;;;;;;2.00;2.00;;;;;28.74;44.15;101422.34;5050242;28;46208;-69
2022/08/19 10:21:22;;;;;;;;;4.00;2.33;;;;;28.76;43.72;101421.13;5054414;28;45753;-69
2022/08/19 10:23:50;;;;;;;;;3.00;3.00;;;;;28.78;43.75;101424.50;5053201;28;45410;-70
2022/08/19 10:26:21;;;;;;;;;1.00;1.00;;;;;28.83;43.66;101428.56;5049137;28;45586;-69
2022/08/19 10:28:47;;;;;;;;;1.67;1.33;;;;;28.85;43.62;101432.78;5049836;28;46317;-68
2022/08/19 10:31:15;;;;;;;;;3.00;3.00;;;;;28.86;43.94;101437.25;5053673;28;45518;-71
2022/08/19 10:33:41;;;;;;;;;2.00;2.00;;;;;28.88;43.35;101424.25;5049478;28;45460;-70
2022/08/19 10:36:14;;;;;;;;;2.33;2.33;;;;;28.90;43.81;101424.09;5052350;28;45289;-71
2022/08/19 10:38:40;;;;;;;;;4.33;4.00;;;;;28.92;43.25;101422.00;5051515;28;45646;-70
2022/08/19 10:41:08;;;;;;;;;2.67;2.67;;;;;28.92;43.46;101422.00;5053890;28;45654;-69
2022/08/19 10:43:36;;;;;;;;;5.00;3.00;;;;;28.95;43.64;101423.50;5051450;28;45411;-71
2022/08/19 10:46:03;;;;;;;;;4.00;4.00;;;;;28.92;43.89;101411.06;5054154;28;45617;-70
2022/08/19 10:48:28;;;;;;;;;2.33;2.33;;;;;28.93;43.39;101413.63;5052930;28;45516;-71
2022/08/19 10:53:38;;;;;;;;;3.67;3.00;;;;;28.96;43.46;101414.25;5037140;28;45758;-71
2022/08/19 10:58:48;;;;;;;;;4.33;4.33;;;;;28.93;43.79;101416.34;5038207;28;45480;-71
2022/08/19 11:01:14;;;;;;;;;5.00;3.00;;;;;28.88;44.23;101412.44;5052781;28;45538;-71
2022/08/19 11:03:39;;;;;;;;;3.67;3.33;;;;;28.88;43.90;101413.34;5052096;28;45415;-71
2022/08/19 11:06:07;;;;;;;;;2.00;2.00;;;;;28.86;43.88;101411.81;5055308;28;45773;-71
2022/08/19 11:08:34;;;;;;;;;4.33;3.00;;;;;28.87;43.93;101402.56;5046885;28;47591;-71
2022/08/19 11:11:02;;;;;;;;;2.33;2.33;;;;;28.87;43.48;101406.16;5055980;28;45339;-71
2022/08/19 11:13:30;;;;;;;;;1.00;1.00;;;;;28.86;43.83;101401.72;5054398;28;45552;-71
2022/08/19 11:16:19;;;;;;;;;2.00;2.00;;;;;28.85;43.67;101391.00;5054102;28;45585;-71
2022/08/19 11:18:48;;;;;;;;;3.00;3.00;;;;;28.85;44.12;101391.00;5049905;28;46001;-71
2022/08/19 11:21:20;;;;;;;;;2.67;2.67;;;;;28.85;43.54;101401.91;5055650;28;45464;-71
2022/08/19 11:23:48;;;;;;;;;2.67;2.67;;;;;28.84;44.07;101400.19;5055603;28;45520;-71
2022/08/19 11:26:15;;;;;;;;;2.33;2.33;;;;;28.82;43.91;101402.28;5048722;28;45626;-71
2022/08/19 11:28:41;;;;;;;;;4.00;4.00;;;;;28.81;43.61;101387.75;5054656;28;47004;-70
2022/08/19 11:31:15;;;;;;;;;2.67;2.00;;;;;28.83;44.26;101387.59;5042861;28;45363;-71
2022/08/19 11:33:41;;;;;;;;;3.00;3.00;;;;;28.74;43.68;101365.84;5057215;28;45462;-71
2022/08/19 11:36:07;;;;;;;;;4.00;4.00;;;;;28.80;43.54;101373.28;5051354;28;45604;-71
2022/08/19 11:38:35;;;;;;;;;3.67;3.00;;;;;28.82;43.85;101380.44;5055202;28;45896;-71
2022/08/19 11:41:03;;;;;;;;;3.00;3.00;;;;;28.82;43.73;101372.22;5054867;28;45490;-70
2022/08/19 11:43:30;;;;;;;;;2.67;2.67;;;;;28.80;44.15;101375.16;5047518;28;45406;-71
2022/08/19 11:45:56;;;;;;;;;3.67;3.67;;;;;28.79;43.52;101379.78;5049260;28;45643;-71
2022/08/19 11:48:22;;;;;;;;;2.33;2.33;;;;;28.80;44.25;101377.88;5053473;28;45403;-69
2022/08/19 11:50:52;;;;;;;;;3.00;3.00;;;;;28.80;44.69;101375.16;5047681;28;45277;-68
2022/08/19 11:53:19;;;;;;;;;3.00;3.00;;;;;28.78;44.08;101372.59;5056585;28;45526;-67
2022/08/19 11:55:46;;;;;;;;;3.00;3.00;;;;;28.81;44.69;101368.66;5048379;28;45905;-68
2022/08/19 11:58:13;;;;;;;;;2.67;2.67;;;;;28.81;44.94;101368.66;5048577;28;45442;-68
2022/08/19 12:00:39;;;;;;;;;5.00;5.00;;;;;28.83;44.41;101365.72;5055982;28;45343;-68
2022/08/19 12:03:05;;;;;;;;;3.00;3.00;;;;;28.85;44.27;101367.22;5047461;28;45304;-69
2022/08/19 12:05:30;;;;;;;;;3.33;3.33;;;;;28.87;44.14;101367.91;5050547;28;45280;-69
2022/08/19 12:07:56;;;;;;;;;2.33;2.33;;;;;28.88;44.43;101360.53;5056763;28;45378;-68
2022/08/19 12:10:22;;;;;;;;;3.00;3.00;;;;;28.91;44.73;101368.41;5050624;28;45408;-69
2022/08/19 12:12:47;;;;;;;;;3.00;3.00;;;;;28.91;44.29;101352.88;5056606;28;45423;-69
2022/08/19 12:15:14;;;;;;;;;4.00;3.67;;;;;28.90;44.62;101363.97;5054525;28;45366;-68
2022/08/19 12:17:40;;;;;;;;;3.33;3.33;;;;;28.90;44.64;101348.41;5053551;28;46739;-69
2022/08/19 12:20:07;;;;;;;;;4.00;4.00;;;;;28.92;44.52;101342.75;5055594;28;45484;-68
2022/08/19 12:22:32;;;;;;;;;5.67;2.67;;;;;28.96;43.69;101346.81;5055692;28;45415;-69
2022/08/19 12:24:58;;;;;;;;;1.67;1.67;;;;;28.99;44.15;101348.31;5036217;28;45511;-68
2022/08/19 12:27:23;;;;;;;;;2.33;2.33;;;;;29.01;43.56;101343.53;5041734;28;47031;-68
2022/08/19 12:29:48;;;;;;;;;3.00;3.00;;;;;28.99;44.05;101334.66;5054416;28;45338;-68
2022/08/19 12:32:16;;;;;;;;;2.00;2.00;;;;;29.04;43.65;101343.97;5050717;28;45488;-69
2022/08/19 12:34:42;;;;;;;;;2.00;2.00;;;;;29.05;43.26;101333.88;5047092;28;45542;-69
2022/08/19 12:37:07;;;;;;;;;2.00;2.00;;;;;29.06;43.90;101339.16;5051529;28;45863;-69
2022/08/19 12:39:44;;;;;;;;;2.00;2.00;;;;;29.09;43.68;101339.84;5044271;28;45534;-69
2022/08/19 12:42:11;;;;;;;;;2.00;2.00;;;;;29.12;43.61;101342.16;5037949;28;45463;-69
2022/08/19 12:44:39;;;;;;;;;2.00;2.00;;;;;29.13;43.36;101338.38;5039139;28;45502;-68
2022/08/19 12:47:05;;;;;;;;;1.67;1.67;;;;;29.14;43.77;101340.09;5037994;28;45459;-69
2022/08/19 12:49:33;;;;;;;;;2.00;2.00;;;;;29.15;43.21;101336.31;5035282;28;45429;-69
2022/08/19 12:52:02;;;;;;;;;2.00;2.00;;;;;29.16;43.54;101329.81;5035597;28;45561;-69
2022/08/19 12:54:30;;;;;;;;;2.00;2.00;;;;;29.17;43.26;101335.09;5036503;28;45338;-69
2022/08/19 12:56:56;;;;;;;;;4.00;3.00;;;;;29.20;42.84;101336.59;5041290;28;45495;-69
2022/08/19 12:59:22;;;;;;;;;3.00;3.00;;;;;29.21;43.19;101331.97;5048173;28;45801;-70
2022/08/19 13:01:47;;;;;;;;;2.00;2.00;;;;;29.20;43.04;101320.19;5035785;28;45472;-69
2022/08/19 13:04:12;;;;;;;;;3.33;3.33;;;;;29.21;42.51;101330.06;5043925;28;45928;-69
2022/08/19 13:06:38;;;;;;;;;1.00;1.00;;;;;29.19;42.64;101327.53;5039190;28;48009;-69
2022/08/19 13:09:04;;;;;;;;;3.00;3.00;;;;;29.19;43.18;101335.72;5042771;28;45601;-70
2022/08/19 13:11:33;;;;;;;;;1.00;1.00;;;;;29.19;42.40;101332.16;5040931;28;45404;-69
2022/08/19 13:13:59;;;;;;;;;2.33;2.00;;;;;29.20;42.92;101325.66;5040612;28;45999;-68
2022/08/19 13:16:27;;;;;;;;;2.33;2.33;;;;;29.22;43.12;101329.03;5047959;28;45340;-69
2022/08/19 13:18:54;;;;;;;;;3.00;3.00;;;;;29.24;42.52;101332.44;5044070;28;45582;-68
2022/08/19 13:21:23;;;;;;;;;3.00;3.00;;;;;29.24;42.73;101323.38;5044947;28;45503;-69
2022/08/19 13:23:49;;;;;;;;;1.00;1.00;;;;;29.26;42.92;101324.03;5044690;28;45592;-69
2022/08/19 13:26:15;;;;;;;;;2.67;2.67;;;;;29.27;42.49;101325.72;5037930;28;45480;-68
2022/08/19 13:34:14;;;;;;;;;2.00;2.00;;;;;29.30;42.75;101328.91;5064138;28;45439;-69
2022/08/19 13:36:40;;;;;;;;;2.00;2.00;;;;;29.30;42.70;101331.66;5060591;28;47318;-69
2022/08/19 13:39:09;;;;;;;;;1.67;1.67;;;;;29.30;42.97;101328.09;5055414;28;45740;-69
2022/08/19 13:41:36;;;;;;;;;2.33;2.33;;;;;29.28;43.15;101316.47;5048357;28;45370;-68
2022/08/19 13:44:02;;;;;;;;;4.33;3.00;;;;;29.29;43.14;101326.38;5054932;28;45718;-69
2022/08/19 13:46:28;;;;;;;;;2.67;2.67;;;;;29.29;43.54;101327.22;5047417;27;46353;-68
2022/08/19 13:48:54;;;;;;;;;2.00;2.00;;;;;29.30;43.31;101322.63;5054025;28;45498;-68
2022/08/19 13:51:20;;;;;;;;;3.00;3.00;;;;;29.30;43.78;101323.44;5041342;28;46664;-69
2022/08/19 13:53:45;;;;;;;;;4.00;4.00;;;;;29.32;43.39;101317.78;5051681;28;45838;-70
2022/08/19 13:56:16;;;;;;;;;2.67;2.67;;;;;29.34;43.68;101323.91;5044779;28;45829;-69
2022/08/19 13:58:42;;;;;;;;;3.00;3.00;;;;;29.36;43.87;101321.84;5041372;28;45454;-69
2022/08/19 14:01:09;;;;;;;;;2.00;2.00;;;;;29.39;43.72;101326.06;5055700;28;45416;-68
2022/08/19 14:03:35;;;;;;;;;3.67;3.00;;;;;29.39;43.65;101318.69;5052585;28;45308;-69
2022/08/19 14:06:01;;;;;;;;;4.00;4.00;;;;;29.35;43.96;101317.41;5043096;28;45510;-69
2022/08/19 14:08:27;;;;;;;;;3.00;3.00;;;;;29.32;43.76;101318.66;5047905;28;45477;-69
2022/08/19 14:10:54;;;;;;;;;5.00;3.33;;;;;29.33;44.43;101324.94;5040858;28;45393;-69
2022/08/19 14:13:22;;;;;;;;;2.67;2.67;;;;;29.30;43.78;101325.34;5045241;28;45431;-71
2022/08/19 14:15:47;;;;;;;;;4.00;4.00;;;;;29.30;44.11;101322.63;5044790;28;46084;-71
2022/08/19 14:18:15;;;;;;;;;3.00;3.00;;;;;29.30;43.83;101331.66;5041540;28;45861;-69
2022/08/19 14:20:41;;;;;;;;;5.00;5.00;;;;;29.28;44.12;101320.06;5044767;28;45494;-70
2022/08/19 14:23:06;;;;;;;;;2.67;2.67;;;;;29.31;43.57;101318.84;5045947;28;45450;-70
2022/08/19 14:25:33;;;;;;;;;5.00;5.00;;;;;29.29;44.15;101321.75;5043986;28;46271;-69
2022/08/19 14:28:00;;;;;;;;;2.33;2.33;;;;;29.28;43.85;101319.22;5043373;28;46190;-69
2022/08/19 14:30:29;;;;;;;;;4.33;3.00;;;;;29.27;43.76;101325.72;5047015;28;45412;-69
2022/08/19 14:33:01;;;;;;;;;2.00;2.00;;;;;29.29;44.31;101319.03;5046757;28;45407;-68
2022/08/19 14:35:33;;;;;;;;;2.00;2.00;;;;;29.31;44.27;101318.84;5047099;28;45845;-68
2022/08/19 14:37:58;;;;;;;;;3.33;3.33;;;;;29.32;44.06;101328.72;5036856;28;45800;-69
2022/08/19 14:40:27;;;;;;;;;4.00;4.00;;;;;29.32;43.71;101328.72;5035662;28;45603;-69
2022/08/19 14:42:58;;;;;;;;;2.00;2.00;;;;;29.33;44.16;101330.41;5043467;28;45465;-69
2022/08/19 14:45:25;;;;;;;;;3.00;3.00;;;;;29.32;44.18;101326.00;5039491;28;45482;-68
2022/08/19 14:47:52;;;;;;;;;2.00;2.00;;;;;29.29;43.48;101320.91;5044893;28;45490;-68
2022/08/19 14:50:17;;;;;;;;;3.33;3.33;;;;;29.20;43.23;101303.78;5043771;28;45949;-68
2022/08/19 14:52:43;;;;;;;;;2.33;2.00;;;;;29.29;43.65;101315.44;5037795;28;45380;-68
2022/08/19 14:55:08;;;;;;;;;3.00;3.00;;;;;29.27;43.08;101323.00;5042753;28;46247;-68
2022/08/19 14:57:34;;;;;;;;;1.33;1.33;;;;;29.29;42.93;101329.09;5036406;28;45698;-67
2022/08/19 14:59:59;;;;;;;;;3.00;3.00;;;;;29.26;43.12;101313.94;5039794;28;45517;-69
2022/08/19 15:02:25;;;;;;;;;3.67;3.33;;;;;29.27;42.96;101314.78;5046459;28;45645;-69
2022/08/19 15:04:50;;;;;;;;;2.00;2.00;;;;;29.28;43.01;101313.75;5043746;28;45535;-68
2022/08/19 15:07:16;;;;;;;;;2.67;2.67;;;;;29.27;43.41;101309.31;5040988;28;45575;-68
2022/08/19 15:09:41;;;;;;;;;2.67;2.67;;;;;29.27;43.22;101310.19;5040005;28;45468;-69
2022/08/19 15:12:07;;;;;;;;;2.00;2.00;;;;;29.26;43.20;101313.09;5040620;28;45411;-68
2022/08/19 15:14:37;;;;;;;;;2.67;2.00;;;;;29.26;43.50;101318.56;5043191;28;45993;-68
2022/08/19 15:17:04;;;;;;;;;2.00;2.00;;;;;29.26;43.45;101308.47;5037202;28;45508;-69
2022/08/19 15:19:31;;;;;;;;;2.00;2.00;;;;;29.23;43.63;101306.16;5040251;28;45442;-69
2022/08/19 15:21:57;;;;;;;;;2.67;2.67;;;;;29.25;43.57;101314.13;5047793;28;45676;-69
2022/08/19 15:24:24;;;;;;;;;3.00;3.00;;;;;29.23;43.72;101306.16;5032861;28;45478;-68
2022/08/19 15:26:50;;;;;;;;;1.00;1.00;;;;;29.25;43.43;101306.78;5037733;28;45316;-68
2022/08/19 15:29:16;;;;;;;;;0.00;0.00;;;;;29.26;43.59;101315.84;5045880;28;45310;-69
2022/08/19 15:31:42;;;;;;;;;3.67;2.00;;;;;29.27;43.72;101312.91;5055209;28;45422;-71
2022/08/19 15:34:08;;;;;;;;;3.33;2.33;;;;;29.30;42.70;101311.69;5054722;28;45552;-68
2022/08/19 15:36:34;;;;;;;;;4.00;2.00;;;;;29.28;42.85;101311.88;5048459;28;45683;-67
2022/08/19 15:39:01;;;;;;;;;1.00;1.00;;;;;29.29;42.95;101305.34;5048565;28;45380;-68
2022/08/19 15:41:29;;;;;;;;;2.33;2.33;;;;;29.29;43.08;101308.09;5039706;28;45628;-68
2022/08/19 15:44:21;;;;;;;;;3.00;3.00;;;;;29.34;42.92;101307.50;5046506;28;45922;-68
2022/08/19 15:46:47;;;;;;;;;1.00;1.00;;;;;29.35;43.06;101311.09;5047306;28;45385;-69
2022/08/19 15:49:16;;;;;;;;;2.00;2.00;;;;;29.38;43.39;101310.72;5049978;28;45596;-68
2022/08/19 15:51:44;;;;;;;;;1.67;1.67;;;;;29.40;43.19;101312.22;5048510;28;47154;-69
2022/08/19 15:54:12;;;;;;;;;2.00;2.00;;;;;29.44;43.29;101315.38;5047950;28;47403;-68
2022/08/19 16:07:35;;;;;;;;;3.67;3.67;;;;;29.51;42.72;101315.50;5053531;28;45391;-68
2022/08/19 16:10:00;;;;;;;;;2.00;2.00;;;;;29.51;42.75;101310.03;5039452;28;45619;-69
2022/08/19 16:12:29;;;;;;;;;3.00;3.00;;;;;29.52;42.43;101319.91;5053211;28;45716;-68
2022/08/19 16:14:54;;;;;;;;;2.00;2.00;;;;;29.52;42.69;101320.78;5050691;28;46332;-68
2022/08/19 16:17:20;;;;;;;;;2.00;2.00;;;;;29.53;42.37;101310.66;5047370;28;45360;-69
2022/08/19 16:19:45;;;;;;;;;2.67;2.67;;;;;29.55;42.41;101325.81;5047378;28;45425;-68
2022/08/19 16:22:20;;;;;;;;;2.67;2.00;;;;;29.53;41.85;101308.78;5050882;28;45337;-71
2022/08/19 16:24:48;;;;;;;;;2.67;2.67;;;;;29.57;42.36;101318.28;5040471;28;46516;-70
2022/08/19 16:27:15;;;;;;;;;2.67;2.67;;;;;29.61;41.95;101326.94;5042169;28;45612;-72
2022/08/19 16:29:40;;;;;;;;;4.67;3.67;;;;;29.60;42.15;101319.78;5045721;28;45443;-71
2022/08/19 16:32:12;;;;;;;;;3.00;3.00;;;;;29.61;41.92;101320.63;5041697;28;45547;-69
2022/08/19 16:34:39;;;;;;;;;3.33;3.33;;;;;29.59;42.28;101327.13;5053463;28;45712;-68
2022/08/19 16:37:05;;;;;;;;;3.00;3.00;;;;;29.57;42.15;101326.50;5045784;28;45433;-67
2022/08/19 16:39:30;;;;;;;;;4.00;4.00;;;;;29.58;42.62;101330.91;5041865;28;45539;-68
2022/08/19 16:41:55;;;;;;;;;3.00;3.00;;;;;29.58;42.01;101335.53;5054652;28;45435;-67
2022/08/19 16:44:21;;;;;;;;;2.00;2.00;;;;;29.57;42.38;101329.22;5053161;28;46203;-69
2022/08/19 16:46:47;;;;;;;;;2.00;2.00;;;;;29.58;42.02;101332.78;5047085;28;45679;-69
2022/08/19 16:49:13;;;;;;;;;2.00;2.00;;;;;29.57;41.96;101331.09;5049992;28;46456;-69
2022/08/19 16:51:41;;;;;;;;;3.67;3.67;;;;;29.55;42.63;101325.00;5053855;28;45549;-67
2022/08/19 16:54:06;;;;;;;;;2.67;2.67;;;;;29.57;42.17;101334.69;5052584;28;45399;-70
2022/08/19 16:56:32;;;;;;;;;1.67;1.67;;;;;29.58;42.26;101335.53;5046755;28;45593;-70
2022/08/19 16:58:58;;;;;;;;;3.00;3.00;;;;;29.57;42.10;101337.44;5037693;28;45518;-70
2022/08/19 17:01:25;;;;;;;;;2.00;2.00;;;;;29.58;41.67;101341.00;5047225;28;45677;-69
2022/08/19 17:03:51;;;;;;;;;3.00;3.00;;;;;29.61;42.16;101343.34;5050421;28;45829;-70
2022/08/19 17:06:20;;;;;;;;;2.00;2.00;;;;;29.59;42.12;101343.53;5047433;28;47065;-70
2022/08/19 17:08:46;;;;;;;;;3.33;3.33;;;;;29.61;42.19;101347.97;5050072;28;45372;-68
2022/08/19 17:11:12;;;;;;;;;3.00;3.00;;;;;29.58;42.37;101344.59;5050205;28;45503;-72
2022/08/19 17:13:37;;;;;;;;;3.67;2.00;;;;;29.61;42.25;101350.69;5055323;28;45778;-71
2022/08/19 17:16:04;;;;;;;;;3.00;3.00;;;;;29.58;42.12;101343.72;5052799;28;45697;-71
2022/08/19 17:18:32;;;;;;;;;2.67;2.67;;;;;29.57;41.72;101351.09;5051318;28;45477;-71
2022/08/19 17:20:59;;;;;;;;;2.33;2.33;;;;;29.57;42.44;101351.09;5054408;28;45403;-70
2022/08/19 17:23:25;;;;;;;;;2.00;2.00;;;;;29.54;41.92;101354.22;5053871;28;45371;-71
2022/08/19 17:25:51;;;;;;;;;0.67;0.67;;;;;29.54;41.99;101345.16;5041393;28;45533;-70
2022/08/19 17:28:20;;;;;;;;;2.67;1.67;;;;;29.55;41.47;101346.88;5043204;28;45561;-70
2022/08/19 17:30:46;;;;;;;;;3.67;3.33;;;;;29.53;42.08;101341.59;5048440;28;45516;-70
2022/08/19 17:33:12;;;;;;;;;2.00;2.00;;;;;29.54;41.94;101335.06;5053718;28;46490;-71
2022/08/19 17:35:42;;;;;;;;;3.00;3.00;;;;;29.55;41.56;101331.28;5053751;28;45576;-70
2022/08/19 17:38:14;;;;;;;;;1.00;1.00;;;;;29.53;41.78;101327.91;5055084;28;45411;-70
2022/08/19 17:40:40;;;;;;;;;2.00;2.00;;;;;29.53;41.46;101327.06;5054127;28;45324;-70
2022/08/19 17:43:07;;;;;;;;;2.00;2.00;;;;;29.53;42.03;101329.81;5053908;28;46229;-70
2022/08/19 17:45:33;;;;;;;;;2.00;2.00;;;;;29.53;41.93;101330.66;5054539;28;45424;-70
2022/08/19 17:48:00;;;;;;;;;4.33;3.00;;;;;29.54;41.85;101337.81;5052325;28;45509;-70
2022/08/19 17:50:26;;;;;;;;;3.00;3.00;;;;;29.52;41.52;101333.59;5059746;28;45789;-70
